createdAt,value
2022-12-18T00:01:39.387Z,74.60
2022-12-18T00:04:10.662Z,74.40
2022-12-18T00:06:42.968Z,74.60
2022-12-18T00:09:14.509Z,74.70
2022-12-18T00:11:44.532Z,75.50
2022-12-18T00:14:16.392Z,74.70
2022-12-18T00:16:48.954Z,74.80
2022-12-18T00:19:18.912Z,75.10
2022-12-18T00:21:49.369Z,75.30
2022-12-18T00:24:19.260Z,75.50
2022-12-18T00:26:49.380Z,75.60
2022-12-18T00:29:19.266Z,75.80
2022-12-18T00:31:49.259Z,75.70
2022-12-18T00:34:19.195Z,75.70
2022-12-18T00:36:51.674Z,75.70
2022-12-18T00:39:21.468Z,75.70
2022-12-18T00:42:10.975Z,75.30
2022-12-18T00:44:40.869Z,75.20
2022-12-18T00:47:10.725Z,75.10
2022-12-18T00:49:40.634Z,74.70
2022-12-18T00:52:10.989Z,74.40
2022-12-18T00:54:41.086Z,74.30
2022-12-18T00:57:10.980Z,74.10
2022-12-18T00:59:40.804Z,73.60
2022-12-18T01:02:10.869Z,73.60
2022-12-18T01:04:40.900Z,73.50
2022-12-18T01:07:10.729Z,73.40
2022-12-18T01:09:40.666Z,73.10
2022-12-18T01:12:10.625Z,72.90
2022-12-18T01:14:40.925Z,72.70
2022-12-18T01:17:10.925Z,72.60
2022-12-18T01:19:40.885Z,72.30
2022-12-18T01:22:10.454Z,72.10
2022-12-18T01:24:39.949Z,71.80
2022-12-18T01:27:09.886Z,71.70
2022-12-18T01:29:39.424Z,71.50
2022-12-18T01:32:09.015Z,71.30
2022-12-18T01:34:41.720Z,70.90
2022-12-18T01:37:11.266Z,70.60
2022-12-18T01:39:40.813Z,70.40
2022-12-18T01:42:17.413Z,70.40
2022-12-18T01:45:26.228Z,70.30
2022-12-18T01:48:18.183Z,70.10
2022-12-18T01:50:47.805Z,69.70
2022-12-18T01:53:21.973Z,69.50
2022-12-18T01:55:58.365Z,68.50
2022-12-18T01:59:00.626Z,68.60
2022-12-18T02:01:32.073Z,68.00
2022-12-18T02:04:28.845Z,67.70
2022-12-18T02:07:15.501Z,67.30
2022-12-18T02:10:02.993Z,67.00
2022-12-18T02:12:58.154Z,66.50
2022-12-18T02:15:42.100Z,66.20
2022-12-18T02:18:23.030Z,66.60
2022-12-18T02:20:58.590Z,65.80
2022-12-18T02:23:59.164Z,65.00
2022-12-18T02:26:35.759Z,64.80
2022-12-18T02:29:15.133Z,64.70
2022-12-18T02:31:56.164Z,64.40
2022-12-18T02:34:31.204Z,63.60
2022-12-18T02:37:04.065Z,63.80
2022-12-18T02:39:36.808Z,63.80
2022-12-18T02:42:10.479Z,63.70
2022-12-18T02:44:48.172Z,63.70
2022-12-18T02:47:22.342Z,63.20
2022-12-18T02:50:19.414Z,62.80
2022-12-18T02:53:15.266Z,62.90
2022-12-18T02:56:07.314Z,63.10
2022-12-18T02:59:06.128Z,61.00
2022-12-18T03:01:58.736Z,60.90
2022-12-18T03:05:02.440Z,61.10
2022-12-18T03:07:40.969Z,60.70
2022-12-18T03:10:14.864Z,60.80
2022-12-18T03:12:55.856Z,61.10
2022-12-18T03:15:33.089Z,60.30
2022-12-18T03:18:16.113Z,60.20
2022-12-18T03:20:48.966Z,59.00
2022-12-18T03:23:26.262Z,59.30
2022-12-18T03:26:04.398Z,59.30
2022-12-18T03:28:42.705Z,58.90
2022-12-18T03:31:15.553Z,58.20
2022-12-18T03:33:57.038Z,58.60
2022-12-18T03:36:26.964Z,58.10
2022-12-18T03:38:56.523Z,57.60
2022-12-18T03:41:48.170Z,57.90
2022-12-18T03:44:39.972Z,58.00
2022-12-18T03:47:18.665Z,57.90
2022-12-18T03:50:13.921Z,57.90
2022-12-18T03:53:14.134Z,57.90
2022-12-18T03:55:45.224Z,57.90
2022-12-18T03:58:19.973Z,57.80
2022-12-18T04:00:53.672Z,57.50
2022-12-18T04:03:26.472Z,57.20
2022-12-18T04:05:58.674Z,57.50
2022-12-18T04:08:28.665Z,57.20
2022-12-18T04:10:58.484Z,57.40
2022-12-18T04:13:32.456Z,56.80
2022-12-18T04:16:02.006Z,56.70
2022-12-18T04:18:31.614Z,56.80
2022-12-18T04:21:01.173Z,56.40
2022-12-18T04:23:31.221Z,56.30
2022-12-18T04:26:00.896Z,56.30
2022-12-18T04:28:30.602Z,56.60
2022-12-18T04:31:00.246Z,56.00
2022-12-18T04:33:30.174Z,55.70
2022-12-18T04:35:59.925Z,55.60
2022-12-18T04:38:29.469Z,55.50
2022-12-18T04:40:59.045Z,55.30
2022-12-18T04:43:28.745Z,55.40
2022-12-18T04:46:08.558Z,55.10
2022-12-18T04:48:39.304Z,55.10
2022-12-18T04:51:09.960Z,54.60
2022-12-18T04:53:39.762Z,55.10
2022-12-18T04:56:15.528Z,55.00
2022-12-18T04:58:47.417Z,54.60
2022-12-18T05:01:19.339Z,54.20
2022-12-18T05:03:49.139Z,53.90
2022-12-18T05:06:18.727Z,54.10
2022-12-18T05:08:48.417Z,54.40
2022-12-18T05:11:18.708Z,54.70
2022-12-18T05:13:48.762Z,54.10
2022-12-18T05:16:18.674Z,54.10
2022-12-18T05:18:48.293Z,54.30
2022-12-18T05:21:17.828Z,54.10
2022-12-18T05:23:47.435Z,54.20
2022-12-18T05:26:20.494Z,54.10
2022-12-18T05:28:50.303Z,53.40
2022-12-18T05:31:20.382Z,53.60
2022-12-18T05:33:50.023Z,53.80
2022-12-18T05:36:19.748Z,53.90
2022-12-18T05:38:49.301Z,52.80
2022-12-18T05:41:19.176Z,52.60
2022-12-18T05:43:48.840Z,53.20
2022-12-18T05:46:20.598Z,53.00
2022-12-18T05:48:50.848Z,53.30
2022-12-18T05:51:22.670Z,52.40
2022-12-18T05:53:52.607Z,52.60
2022-12-18T05:56:25.405Z,52.50
2022-12-18T05:58:57.387Z,52.60
2022-12-18T06:01:29.297Z,52.40
2022-12-18T06:03:59.319Z,52.50
2022-12-18T06:06:31.472Z,52.20
2022-12-18T06:09:01.217Z,50.90
2022-12-18T06:11:31.176Z,51.90
2022-12-18T06:14:00.870Z,51.70
2022-12-18T06:16:31.873Z,51.70
2022-12-18T06:19:06.389Z,52.10
2022-12-18T06:21:36.659Z,51.20
2022-12-18T06:24:06.347Z,51.10
2022-12-18T06:26:35.881Z,51.20
2022-12-18T06:29:05.528Z,51.50
2022-12-18T06:31:35.226Z,51.10
2022-12-18T06:34:07.974Z,51.40
2022-12-18T06:36:37.658Z,51.40
2022-12-18T06:39:08.202Z,51.50
2022-12-18T06:41:38.974Z,51.10
2022-12-18T06:44:09.340Z,51.10
2022-12-18T06:46:40.667Z,51.30
2022-12-18T06:49:12.171Z,50.90
2022-12-18T06:51:42.167Z,50.00
2022-12-18T06:54:11.847Z,50.50
2022-12-18T06:56:41.403Z,50.70
2022-12-18T06:59:12.291Z,50.80
2022-12-18T07:01:42.249Z,50.70
2022-12-18T07:04:12.210Z,50.50
2022-12-18T07:06:42.129Z,50.00
2022-12-18T07:09:12.022Z,50.00
2022-12-18T07:11:41.782Z,49.10
2022-12-18T07:14:11.656Z,50.20
2022-12-18T07:16:41.613Z,50.40
2022-12-18T07:19:11.566Z,49.90
2022-12-18T07:21:41.505Z,49.90
2022-12-18T07:24:11.631Z,49.70
2022-12-18T07:26:41.828Z,49.40
2022-12-18T07:29:12.032Z,49.80
2022-12-18T07:31:41.977Z,50.10
2022-12-18T07:34:17.673Z,50.40
2022-12-18T07:36:47.572Z,50.30
2022-12-18T07:39:17.577Z,50.20
2022-12-18T07:42:07.146Z,50.10
2022-12-18T07:44:36.997Z,49.80
2022-12-18T07:47:11.796Z,50.10
2022-12-18T07:49:42.143Z,49.80
2022-12-18T07:52:12.189Z,50.10
2022-12-18T07:54:42.995Z,50.10
2022-12-18T07:57:27.413Z,49.20
2022-12-18T08:00:03.590Z,49.50
2022-12-18T08:02:35.156Z,49.50
2022-12-18T08:05:05.275Z,49.80
2022-12-18T08:07:36.690Z,49.60
2022-12-18T08:10:06.725Z,49.40
2022-12-18T08:12:36.387Z,49.70
2022-12-18T08:15:06.043Z,49.50
2022-12-18T08:17:35.934Z,49.40
2022-12-18T08:20:06.459Z,49.30
2022-12-18T08:22:41.627Z,49.60
2022-12-18T08:25:11.630Z,49.70
2022-12-18T08:27:41.201Z,49.70
2022-12-18T08:30:11.476Z,49.80
2022-12-18T08:32:41.095Z,49.80
2022-12-18T08:35:13.225Z,49.60
2022-12-18T08:37:42.836Z,49.60
2022-12-18T08:40:13.706Z,49.30
2022-12-18T08:43:03.475Z,49.40
2022-12-18T08:45:36.098Z,49.30
2022-12-18T08:48:05.747Z,49.30
2022-12-18T08:50:35.332Z,49.30
2022-12-18T08:53:05.277Z,49.10
2022-12-18T08:55:34.996Z,49.20
2022-12-18T08:58:04.585Z,48.90
2022-12-18T09:00:36.292Z,49.10
2022-12-18T09:03:06.250Z,49.00
2022-12-18T09:05:36.171Z,49.00
2022-12-18T09:08:06.098Z,49.10
2022-12-18T09:10:41.711Z,49.20
2022-12-18T09:13:14.417Z,48.90
2022-12-18T09:15:45.627Z,49.00
2022-12-18T09:18:16.735Z,49.10
2022-12-18T09:20:47.404Z,49.00
2022-12-18T09:23:17.718Z,48.90
2022-12-18T09:25:47.571Z,49.00
2022-12-18T09:28:20.457Z,48.70
2022-12-18T09:30:51.882Z,48.50
2022-12-18T09:33:21.913Z,49.00
2022-12-18T09:35:51.868Z,48.90
2022-12-18T09:38:23.086Z,49.10
2022-12-18T09:40:56.744Z,49.40
2022-12-18T09:44:04.490Z,49.40
2022-12-18T09:46:35.838Z,49.30
2022-12-18T09:49:14.133Z,48.90
2022-12-18T09:51:53.025Z,49.50
2022-12-18T09:54:33.503Z,49.80
2022-12-18T09:57:03.460Z,49.70
2022-12-18T09:59:42.306Z,49.80
2022-12-18T10:02:23.906Z,49.80
2022-12-18T10:05:13.039Z,50.20
2022-12-18T10:08:05.673Z,50.40
2022-12-18T10:10:51.936Z,50.50
2022-12-18T10:13:44.296Z,50.60
2022-12-18T10:16:38.372Z,50.60
2022-12-18T10:19:51.781Z,50.80
2022-12-18T10:22:51.873Z,51.10
2022-12-18T10:25:31.932Z,51.50
2022-12-18T10:28:13.035Z,51.70
2022-12-18T10:30:44.705Z,52.00
2022-12-18T10:33:20.168Z,52.30
2022-12-18T10:35:55.712Z,52.60
2022-12-18T10:38:29.491Z,52.70
2022-12-18T10:41:29.453Z,53.00
2022-12-18T10:44:21.017Z,53.30
2022-12-18T10:46:53.408Z,53.50
2022-12-18T10:49:36.508Z,53.70
2022-12-18T10:52:27.575Z,54.00
2022-12-18T10:55:07.182Z,54.20
2022-12-18T10:57:43.086Z,54.40
2022-12-18T11:00:33.274Z,54.50
2022-12-18T11:03:04.262Z,54.60
2022-12-18T11:05:36.762Z,54.60
2022-12-18T11:08:06.896Z,54.70
2022-12-18T11:10:43.521Z,54.70
2022-12-18T11:13:26.826Z,54.80
2022-12-18T11:15:57.253Z,54.90
2022-12-18T11:18:38.854Z,54.90
2022-12-18T11:21:15.264Z,55.00
2022-12-18T11:23:55.327Z,55.10
2022-12-18T11:26:38.485Z,55.30
2022-12-18T11:29:19.692Z,55.50
2022-12-18T11:31:51.372Z,55.80
2022-12-18T11:34:34.343Z,56.10
2022-12-18T11:37:06.600Z,56.40
2022-12-18T11:39:50.122Z,56.90
2022-12-18T11:42:38.781Z,57.40
2022-12-18T11:45:30.468Z,57.70
2022-12-18T11:48:27.396Z,58.10
2022-12-18T11:51:03.887Z,58.20
2022-12-18T11:53:34.145Z,58.10
2022-12-18T11:56:31.505Z,58.20
2022-12-18T11:59:30.508Z,58.20
2022-12-18T12:02:39.550Z,58.30
2022-12-18T12:05:49.273Z,58.50
2022-12-18T12:08:50.424Z,58.80
2022-12-18T12:11:46.068Z,58.90
2022-12-18T12:14:46.363Z,59.40
2022-12-18T12:17:48.129Z,59.80
2022-12-18T12:20:36.107Z,60.20
2022-12-18T12:23:12.927Z,60.30
2022-12-18T12:25:55.367Z,60.90
2022-12-18T12:28:58.523Z,60.60
2022-12-18T12:32:00.341Z,60.70
2022-12-18T12:34:37.847Z,61.10
2022-12-18T12:37:44.111Z,61.50
2022-12-18T12:40:50.272Z,62.10
2022-12-18T12:43:50.512Z,62.50
2022-12-18T12:46:24.555Z,63.00
2022-12-18T12:49:11.745Z,63.50
2022-12-18T12:51:47.065Z,63.40
2022-12-18T12:54:22.230Z,64.00
2022-12-18T12:57:04.712Z,64.30
2022-12-18T13:00:13.695Z,64.20
2022-12-18T13:03:18.809Z,64.40
2022-12-18T13:06:06.036Z,64.60
2022-12-18T13:08:57.069Z,64.90
2022-12-18T13:12:03.353Z,64.90
2022-12-18T13:14:42.927Z,65.10
2022-12-18T13:17:33.642Z,65.90
2022-12-18T13:20:17.070Z,66.10
2022-12-18T13:22:51.308Z,65.90
2022-12-18T13:25:40.958Z,66.50
2022-12-18T13:28:17.634Z,66.90
2022-12-18T13:30:59.347Z,66.80
2022-12-18T13:34:23.869Z,67.00
2022-12-18T13:36:37.624Z,67.20
2022-12-18T13:39:35.217Z,67.40
2022-12-18T13:43:04.340Z,67.60
2022-12-18T13:45:47.684Z,67.70
2022-12-18T13:48:23.656Z,68.00
2022-12-18T13:51:07.473Z,68.10
2022-12-18T13:53:42.682Z,68.20
2022-12-18T13:56:17.993Z,68.40
2022-12-18T13:58:48.021Z,68.50
2022-12-18T14:01:27.823Z,68.70
2022-12-18T14:04:23.055Z,69.30
2022-12-18T14:06:58.220Z,69.20
2022-12-18T14:09:32.866Z,69.20
2022-12-18T14:12:23.273Z,69.80
2022-12-18T14:14:55.528Z,70.00
2022-12-18T14:17:26.446Z,70.10
2022-12-18T14:19:56.596Z,70.00
2022-12-18T14:22:32.808Z,70.30
2022-12-18T14:25:31.148Z,70.40
2022-12-18T14:28:17.850Z,70.30
2022-12-18T14:30:49.213Z,71.10
2022-12-18T14:33:22.757Z,70.90
2022-12-18T14:36:03.247Z,71.20
2022-12-18T14:38:38.911Z,71.30
2022-12-18T14:41:14.523Z,71.50
2022-12-18T14:43:46.182Z,71.60
2022-12-18T14:46:39.350Z,72.10
2022-12-18T14:49:36.904Z,72.20
2022-12-18T14:52:26.588Z,73.00
2022-12-18T14:54:56.548Z,73.10
2022-12-18T14:57:29.489Z,73.60
2022-12-18T15:00:09.791Z,73.60
2022-12-18T15:02:40.359Z,73.80
2022-12-18T15:05:30.191Z,74.00
2022-12-18T15:08:17.067Z,74.30
2022-12-18T15:10:51.363Z,74.30
2022-12-18T15:13:28.541Z,74.30
2022-12-18T15:16:06.759Z,73.70
2022-12-18T15:18:46.481Z,74.50
2022-12-18T15:21:23.793Z,75.00
2022-12-18T15:23:55.381Z,75.30
2022-12-18T15:26:25.619Z,76.10
2022-12-18T15:29:00.061Z,76.20
2022-12-18T15:31:38.080Z,76.10
2022-12-18T15:34:23.255Z,76.40
2022-12-18T15:36:54.820Z,76.20
2022-12-18T15:39:24.837Z,76.40
2022-12-18T15:42:14.567Z,76.50
2022-12-18T15:44:46.516Z,76.60
2022-12-18T15:47:16.723Z,76.30
2022-12-18T15:49:46.957Z,75.80
2022-12-18T15:52:28.381Z,75.70
2022-12-18T15:55:18.049Z,76.20
2022-12-18T15:57:47.887Z,76.60
2022-12-18T16:00:18.006Z,76.80
2022-12-18T16:02:47.815Z,76.90
2022-12-18T16:05:19.672Z,76.70
2022-12-18T16:07:49.905Z,76.50
2022-12-18T16:10:20.555Z,76.60
2022-12-18T16:12:50.567Z,76.60
2022-12-18T16:15:24.575Z,76.80
2022-12-18T16:17:54.890Z,77.30
2022-12-18T16:20:25.344Z,76.50
2022-12-18T16:22:55.757Z,76.30
2022-12-18T16:25:28.487Z,76.50
2022-12-18T16:27:59.137Z,76.30
2022-12-18T16:30:38.061Z,76.40
2022-12-18T16:33:08.334Z,76.20
2022-12-18T16:35:39.768Z,76.40
2022-12-18T16:38:09.439Z,76.80
2022-12-18T16:41:01.084Z,77.00
2022-12-18T16:43:30.691Z,77.20
2022-12-18T16:46:02.223Z,77.40
2022-12-18T16:48:31.885Z,77.50
2022-12-18T16:51:06.407Z,77.40
2022-12-18T16:53:36.450Z,77.10
2022-12-18T16:56:06.409Z,76.90
2022-12-18T16:58:36.969Z,76.60
2022-12-18T17:01:11.586Z,76.30
2022-12-18T17:03:41.599Z,75.90
2022-12-18T17:06:13.302Z,75.80
2022-12-18T17:08:42.989Z,75.90
2022-12-18T17:11:14.092Z,75.80
2022-12-18T17:13:44.161Z,75.70
2022-12-18T17:16:14.264Z,76.20
2022-12-18T17:18:44.221Z,76.20
2022-12-18T17:21:16.199Z,76.20
2022-12-18T17:23:46.279Z,75.90
2022-12-18T17:26:16.664Z,75.50
2022-12-18T17:28:46.681Z,75.90
2022-12-18T17:31:22.079Z,76.40
2022-12-18T17:33:52.891Z,75.70
2022-12-18T17:36:23.600Z,75.90
2022-12-18T17:38:55.568Z,75.70
2022-12-18T17:41:25.933Z,75.50
2022-12-18T17:43:59.196Z,75.40
2022-12-18T17:46:30.922Z,75.70
2022-12-18T17:49:02.206Z,75.40
2022-12-18T17:51:32.752Z,75.30
2022-12-18T17:54:02.793Z,75.30
2022-12-18T17:56:32.854Z,75.90
2022-12-18T17:59:06.014Z,75.90
2022-12-18T18:01:45.201Z,75.90
2022-12-18T18:04:28.218Z,76.20
2022-12-18T18:06:57.779Z,76.00
2022-12-18T18:09:27.507Z,76.30
2022-12-18T18:12:17.855Z,76.80
2022-12-18T18:14:48.859Z,76.60
2022-12-18T18:17:19.454Z,76.70
2022-12-18T18:19:49.597Z,76.90
2022-12-18T18:22:20.660Z,77.30
2022-12-18T18:24:53.055Z,77.40
2022-12-18T18:27:22.940Z,77.70
2022-12-18T18:29:53.021Z,77.60
2022-12-18T18:32:23.007Z,78.40
2022-12-18T18:34:52.891Z,77.50
2022-12-18T18:37:23.121Z,77.40
2022-12-18T18:39:53.201Z,77.20
2022-12-18T18:42:23.063Z,77.30
2022-12-18T18:44:52.956Z,77.40
2022-12-18T18:47:23.722Z,77.40
2022-12-18T18:49:53.612Z,77.40
2022-12-18T18:52:23.460Z,77.30
2022-12-18T18:55:12.243Z,77.40
2022-12-18T18:57:44.100Z,77.40
2022-12-18T19:00:15.613Z,77.40
2022-12-18T19:02:45.272Z,77.50
2022-12-18T19:05:14.852Z,77.40
2022-12-18T19:07:44.701Z,77.40
2022-12-18T19:10:14.355Z,77.20
2022-12-18T19:13:04.628Z,77.20
2022-12-18T19:15:36.394Z,77.30
2022-12-18T19:18:06.800Z,77.30
2022-12-18T19:20:36.934Z,77.30
2022-12-18T19:23:06.793Z,77.20
2022-12-18T19:25:42.128Z,77.30
2022-12-18T19:28:22.036Z,77.50
2022-12-18T19:30:58.895Z,77.50
2022-12-18T19:33:46.125Z,77.40
2022-12-18T19:36:23.749Z,77.70
2022-12-18T19:38:55.924Z,77.70
2022-12-18T19:41:29.051Z,77.60
2022-12-18T19:43:59.128Z,77.60
2022-12-18T19:46:29.092Z,77.70
2022-12-18T19:49:00.845Z,77.60
2022-12-18T19:51:32.564Z,77.60
2022-12-18T19:54:03.729Z,77.70
2022-12-18T19:56:36.081Z,77.70
2022-12-18T19:59:06.985Z,77.80
2022-12-18T20:01:36.782Z,78.10
2022-12-18T20:04:06.769Z,78.10
2022-12-18T20:06:50.032Z,78.00
2022-12-18T20:09:20.377Z,78.00
2022-12-18T20:11:51.659Z,78.00
2022-12-18T20:14:23.459Z,78.00
2022-12-18T20:16:54.461Z,78.20
2022-12-18T20:19:25.018Z,78.20
2022-12-18T20:21:54.975Z,78.40
2022-12-18T20:24:24.919Z,78.50
2022-12-18T20:26:54.936Z,78.60
2022-12-18T20:29:25.073Z,78.70
2022-12-18T20:31:55.136Z,78.80
2022-12-18T20:34:25.710Z,78.90
2022-12-18T20:36:56.075Z,78.90
2022-12-18T20:39:28.065Z,79.10
2022-12-18T20:41:58.390Z,79.10
2022-12-18T20:44:28.509Z,79.30
2022-12-18T20:47:08.438Z,79.30
2022-12-18T20:49:39.563Z,79.20
2022-12-18T20:52:14.642Z,79.30
2022-12-18T20:54:44.632Z,79.20
2022-12-18T20:57:14.564Z,79.20
2022-12-18T20:59:48.160Z,79.20
2022-12-18T21:02:19.198Z,79.20
2022-12-18T21:04:48.966Z,79.30
2022-12-18T21:07:19.148Z,79.30
2022-12-18T21:09:48.888Z,79.50
2022-12-18T21:12:43.994Z,79.30
2022-12-18T21:15:29.299Z,79.30
2022-12-18T21:17:59.235Z,79.40
2022-12-18T21:20:29.202Z,79.40
2022-12-18T21:23:03.946Z,79.60
2022-12-18T21:25:46.914Z,79.70
2022-12-18T21:28:19.359Z,80.00
2022-12-18T21:30:49.353Z,80.20
2022-12-18T21:33:19.235Z,80.20
2022-12-18T21:35:49.320Z,80.20
2022-12-18T21:38:19.221Z,80.20
2022-12-18T21:40:49.289Z,80.30
2022-12-18T21:43:39.073Z,81.00
2022-12-18T21:46:09.025Z,80.40
2022-12-18T21:48:40.755Z,80.40
2022-12-18T21:51:11.002Z,80.40
2022-12-18T21:53:41.033Z,80.30
2022-12-18T21:56:11.005Z,80.80
2022-12-18T21:58:41.136Z,81.10
2022-12-18T22:01:26.761Z,81.40
2022-12-18T22:04:07.453Z,81.70
2022-12-18T22:06:37.014Z,81.60
2022-12-18T22:09:07.437Z,81.70
2022-12-18T22:11:37.121Z,81.70
2022-12-18T22:14:06.980Z,81.60
2022-12-18T22:16:37.714Z,81.80
2022-12-18T22:19:08.314Z,81.70
2022-12-18T22:21:41.434Z,81.60
2022-12-18T22:24:31.031Z,81.60
2022-12-18T22:27:06.439Z,81.30
2022-12-18T22:29:55.895Z,81.40
2022-12-18T22:32:31.015Z,81.30
2022-12-18T22:35:08.331Z,81.40
2022-12-18T22:37:40.520Z,81.20
2022-12-18T22:40:13.046Z,81.40
2022-12-18T22:42:43.734Z,81.30
2022-12-18T22:45:14.233Z,81.20
2022-12-18T22:47:44.177Z,81.40
2022-12-18T22:50:15.976Z,81.50
2022-12-18T22:52:45.961Z,81.60
2022-12-18T22:55:15.857Z,81.50
2022-12-18T22:57:48.638Z,81.50
2022-12-18T23:00:24.368Z,81.40
2022-12-18T23:03:00.390Z,81.60
2022-12-18T23:05:32.527Z,81.50
2022-12-18T23:08:02.060Z,81.50
2022-12-18T23:10:31.606Z,81.80
2022-12-18T23:13:01.231Z,82.70
2022-12-18T23:15:30.789Z,82.10
2022-12-18T23:18:01.794Z,82.20
2022-12-18T23:20:31.974Z,82.00
2022-12-18T23:23:01.499Z,82.00
2022-12-18T23:25:31.021Z,82.00
2022-12-18T23:28:00.633Z,82.00
2022-12-18T23:30:30.230Z,81.90
2022-12-18T23:32:59.844Z,81.90
2022-12-18T23:35:29.540Z,81.90
2022-12-18T23:37:59.949Z,81.90
2022-12-18T23:40:31.481Z,82.10
2022-12-18T23:43:02.094Z,82.10
2022-12-18T23:45:31.728Z,82.20
2022-12-18T23:48:01.401Z,82.60
2022-12-18T23:50:30.952Z,82.50
2022-12-18T23:53:05.144Z,82.20
2022-12-18T23:55:40.432Z,82.30
2022-12-18T23:58:21.312Z,82.50
